KFAF/FAF METAR and TAF weather

Enter ICAO airport designator
Station Type Date Time Source
KFAF METAR 2020/01/29 12:56 UTC NOAA

KFAF 291256Z 32004KT 10SM BKN049 04/M02 A3010 RMK AO2A SLP196 T00431017 $


Station Type Date Time Source
KFAF Decoded METAR 2020/01/29 12:56 UTC NOAA

Fort Eustis / Felker, VA, United States (KFAF) 37-08N 076-37W
Jan 29, 2020 - 07:56 AM EST / 2020.01.29 1256 UTC
Wind: from the NW (320 degrees) at 5 MPH (4 KT):0
Visibility: 10 mile(s):0
Sky conditions: mostly cloudy
Temperature: 39.7 F (4.3 C)
Dew Point: 28.9 F (-1.7 C)
Relative Humidity: 64%
Pressure (altimeter): 30.1 in. Hg (1019 hPa)
ob: KFAF 291256Z 32004KT 10SM BKN049 04/M02 A3010 RMK AO2A SLP196 T00431017
cycle: 13

Station Type Date Time Source
KFAF TAF 2020/01/29 11:59 UTC NOAA

TAF KFAF 291100Z 2911/3017 VRB06KT 9999 BKN050 QNH3005INS
BECMG 2916/2917 34008KT 9999 BKN040 QNH3012INS
BECMG 3010/3011 VRB06KT 9999 SCT030 SCT120 QNH3018INS TX08/2919Z TN01/3004Z

Example: see airport list